Time;durP1;ratioP1;P1;durP2;ratioP2;P2;SDS_P1;SDS_P2;PMS_P1;PMS_P2;Temp;Humidity;BMP_temperature;BMP_pressure;BME280_temperature;BME280_humidity;BME280_pressure;Samples;Min_cycle;Max_cycle;Signal;HPM_P1;HPM_P2
2021/03/14 00:01:07;;;;;;;7.80;1.67;;;;;;;5.25;70.82;100217.47;5094822;28;20421;-40
2021/03/14 00:03:36;;;;;;;13.10;1.87;;;;;;;5.27;71.08;100223.44;5094365;28;20114;-40
2021/03/14 00:06:02;;;;;;;6.45;2.20;;;;;;;5.30;71.57;100226.50;5094433;28;20059;-40
2021/03/14 00:08:30;;;;;;;8.27;1.80;;;;;;;5.27;71.29;100221.59;5094083;28;20073;-40
2021/03/14 00:11:01;;;;;;;6.13;1.70;;;;;;;5.28;71.11;100231.28;5093770;28;20044;-40
2021/03/14 00:13:29;;;;;;;14.30;1.90;;;;;;;5.28;70.76;100233.97;5094345;28;20044;-41
2021/03/14 00:15:55;;;;;;;9.57;1.77;;;;;;;5.29;70.70;100234.78;5094095;28;20414;-40
2021/03/14 00:18:32;;;;;;;10.57;2.00;;;;;;;5.32;70.84;100242.38;5093318;28;20388;-40
2021/03/14 00:20:59;;;;;;;9.20;2.20;;;;;;;5.31;70.04;100244.25;5093673;28;20024;-40
2021/03/14 00:23:25;;;;;;;9.98;2.30;;;;;;;5.34;70.68;100256.41;5093604;28;20028;-40
2021/03/14 00:25:50;;;;;;;;;;;;;;;5.37;70.25;100246.09;5094598;28;20462;-40
2021/03/14 00:28:18;;;;;;;11.57;2.17;;;;;;;5.33;70.45;100255.59;5093311;28;19957;-40
2021/03/14 00:30:44;;;;;;;9.13;2.30;;;;;;;5.40;71.55;100268.97;5094336;28;20067;-41
2021/03/14 00:33:09;;;;;;;10.02;1.70;;;;;;;5.35;70.71;100263.41;5093620;28;20028;-41
2021/03/14 00:35:34;;;;;;;10.10;2.37;;;;;;;5.31;70.00;100263.00;5094189;28;20024;-41
2021/03/14 00:37:59;;;;;;;11.43;3.60;;;;;;;5.33;70.32;100274.38;5094065;28;20468;-40
2021/03/14 00:40:26;;;;;;;8.33;1.83;;;;;;;5.32;70.38;100272.72;5093698;28;20387;-40
2021/03/14 00:42:54;;;;;;;6.05;1.90;;;;;;;5.33;69.77;100277.03;5093985;28;20374;-40
2021/03/14 00:45:19;;;;;;;6.20;1.42;;;;;;;5.35;70.24;100279.50;5093366;28;20072;-40
2021/03/14 00:47:45;;;;;;;8.13;2.13;;;;;;;5.35;69.68;100288.38;5092363;28;20114;-41
2021/03/14 00:50:11;;;;;;;10.63;2.00;;;;;;;5.37;70.32;100290.84;5093669;28;20032;-41
2021/03/14 00:52:36;;;;;;;6.78;1.42;;;;;;;5.34;70.21;100299.31;5093381;28;20036;-41
2021/03/14 00:55:02;;;;;;;5.40;1.50;;;;;;;5.31;70.41;100302.41;5093833;28;20364;-41
2021/03/14 00:57:27;;;;;;;9.45;1.95;;;;;;;5.35;70.10;100306.31;5093644;28;20464;-41
2021/03/14 00:59:52;;;;;;;6.47;1.50;;;;;;;5.32;70.35;100312.94;5093387;28;20060;-40
2021/03/14 01:02:18;;;;;;;5.93;1.90;;;;;;;5.31;70.45;100300.53;5093215;28;20066;-41
2021/03/14 01:04:43;;;;;;;8.77;1.87;;;;;;;5.33;70.22;100314.56;5093166;28;20032;-41
2021/03/14 01:07:09;;;;;;;11.57;3.23;;;;;;;5.33;70.32;100314.56;5093357;28;20024;-41
2021/03/14 01:09:34;;;;;;;9.20;1.63;;;;;;;5.29;70.52;100313.34;5094195;28;20028;-41
2021/03/14 01:11:59;;;;;;;7.17;1.80;;;;;;;5.33;70.95;100319.94;5091772;28;20090;-41
2021/03/14 01:14:25;;;;;;;8.53;1.63;;;;;;;5.27;70.73;100323.47;5093870;28;20024;-41
2021/03/14 01:16:50;;;;;;;7.10;1.50;;;;;;;5.29;71.23;100323.25;5093321;28;20024;-41
2021/03/14 01:19:15;;;;;;;8.13;1.97;;;;;;;5.29;70.85;100326.75;5093062;28;20032;-41
2021/03/14 01:21:41;;;;;;;8.57;1.93;;;;;;;5.25;71.34;100327.38;5093988;28;20471;-40
2021/03/14 01:24:07;;;;;;;11.00;2.30;;;;;;;5.30;72.49;100330.25;5093512;28;20064;-40
2021/03/14 01:26:32;;;;;;;6.93;1.92;;;;;;;5.30;71.96;100332.94;5093311;28;20460;-40
2021/03/14 01:28:57;;;;;;;9.40;1.80;;;;;;;5.25;72.34;100336.22;5093343;28;20043;-41
2021/03/14 01:31:23;;;;;;;10.50;1.80;;;;;;;5.25;73.26;100332.72;5097003;28;20380;-40
2021/03/14 01:33:48;;;;;;;9.23;1.92;;;;;;;5.23;73.21;100340.16;5097159;28;20380;-41
2021/03/14 01:36:15;;;;;;;10.20;1.97;;;;;;;5.19;73.36;100337.06;5097102;28;20095;-42
2021/03/14 01:38:41;;;;;;;13.38;2.40;;;;;;;5.16;73.93;100340.16;5096684;28;20115;-41
2021/03/14 01:41:06;;;;;;;10.03;2.30;;;;;;;5.13;74.03;100348.63;5096855;28;20105;-42
2021/03/14 01:43:35;;;;;;;12.07;2.50;;;;;;;5.10;74.94;100352.53;5096981;28;20055;-41
2021/03/14 01:46:04;;;;;;;10.65;3.03;;;;;;;5.05;74.80;100354.19;5097401;28;20403;-40
2021/03/14 01:48:29;;;;;;;10.90;2.60;;;;;;;5.00;75.20;100362.84;5096802;28;20031;-41
2021/03/14 01:50:55;;;;;;;9.40;2.50;;;;;;;4.98;75.72;100358.72;5096506;28;20024;-41
2021/03/14 01:53:20;;;;;;;9.13;2.13;;;;;;;4.95;75.89;100375.22;5097230;28;20024;-40
2021/03/14 01:55:47;;;;;;;14.73;3.07;;;;;;;4.91;75.54;100372.94;5097128;28;20154;-41
2021/03/14 01:58:13;;;;;;;12.75;2.20;;;;;;;4.90;76.03;100373.16;5097339;28;20028;-40
2021/03/14 02:00:39;;;;;;;11.30;2.40;;;;;;;4.85;76.32;100371.09;5096761;28;20081;-40
2021/03/14 02:03:05;;;;;;;10.15;2.15;;;;;;;4.87;75.83;100378.91;5096384;28;20028;-40
2021/03/14 02:05:30;;;;;;;7.27;2.10;;;;;;;4.84;76.43;100387.38;5096692;28;20035;-40
2021/03/14 02:07:55;;;;;;;12.07;2.23;;;;;;;4.85;76.10;100389.03;5095478;28;20044;-40
2021/03/14 02:10:24;;;;;;;14.40;2.43;;;;;;;4.83;76.98;100389.25;5096288;28;20048;-41
2021/03/14 02:13:07;;;;;;;10.50;2.20;;;;;;;4.82;76.10;100403.63;5096833;28;20027;-40
2021/03/14 02:15:35;;;;;;;12.10;2.00;;;;;;;4.80;76.43;100403.03;5096777;28;20035;-40
2021/03/14 02:18:02;;;;;;;11.45;2.40;;;;;;;4.80;75.92;100400.34;5095978;28;20492;-40
2021/03/14 02:20:31;;;;;;;4.88;1.48;;;;;;;4.79;76.12;100403.25;5096457;28;20028;-41
2021/03/14 02:23:05;;;;;;;6.75;1.92;;;;;;;4.79;76.08;100404.06;5096163;28;20361;-41
2021/03/14 02:25:45;;;;;;;12.68;1.98;;;;;;;4.88;75.52;100418.91;5096114;28;20365;-40
2021/03/14 02:28:12;;;;;;;12.38;2.95;;;;;;;4.82;75.87;100417.03;5095583;28;20064;-41
2021/03/14 02:30:39;;;;;;;9.68;2.53;;;;;;;4.76;75.33;100425.06;5096075;28;20059;-41
2021/03/14 02:33:04;;;;;;;6.57;1.98;;;;;;;4.71;75.47;100423.00;5095596;28;20024;-40
2021/03/14 02:35:30;;;;;;;8.68;2.05;;;;;;;4.65;75.92;100429.16;5095902;28;20448;-41
2021/03/14 02:37:57;;;;;;;10.95;2.85;;;;;;;4.62;75.98;100435.75;5095608;28;20496;-41
2021/03/14 02:40:23;;;;;;;10.77;2.17;;;;;;;4.58;75.88;100433.66;5095998;28;20020;-41
2021/03/14 02:42:49;;;;;;;6.85;1.95;;;;;;;4.55;76.33;100431.41;5096359;28;20028;-41
2021/03/14 02:45:16;;;;;;;9.48;2.17;;;;;;;4.52;75.83;100437.97;5096046;28;20031;-41
2021/03/14 02:47:41;;;;;;;8.52;2.25;;;;;;;4.47;76.07;100435.09;5095630;28;20024;-40
2021/03/14 02:50:13;;;;;;;8.67;1.97;;;;;;;4.45;75.87;100439.00;5095895;28;20024;-41
2021/03/14 02:52:39;;;;;;;8.23;2.20;;;;;;;4.41;76.17;100443.09;5095987;28;20035;-41
2021/03/14 02:55:08;;;;;;;9.07;1.85;;;;;;;4.39;75.74;100436.09;5095740;28;20459;-41
2021/03/14 02:57:33;;;;;;;10.52;2.83;;;;;;;4.39;75.59;100444.13;5095447;28;20024;-40
2021/03/14 03:00:00;;;;;;;9.07;2.08;;;;;;;4.39;75.88;100452.16;5096038;28;20159;-42
2021/03/14 03:02:27;;;;;;;8.07;2.28;;;;;;;4.34;76.08;100454.63;5095342;28;20036;-41
2021/03/14 03:04:53;;;;;;;6.80;1.95;;;;;;;4.35;75.95;100456.25;5095409;28;20028;-41
2021/03/14 03:07:19;;;;;;;11.02;2.70;;;;;;;4.35;76.28;100466.97;5095283;28;20034;-40
2021/03/14 03:09:46;;;;;;;9.18;3.15;;;;;;;4.37;76.03;100462.22;5095195;28;20081;-41
2021/03/14 03:12:13;;;;;;;10.20;2.60;;;;;;;4.34;76.21;100465.31;5095362;28;20135;-41
2021/03/14 03:14:39;;;;;;;9.95;2.33;;;;;;;5.47;85.88;100464.72;5095452;28;20103;-41
2021/03/14 03:17:05;;;;;;;10.90;2.93;;;;;;;4.75;76.99;100477.00;5095190;28;20052;-40
2021/03/14 03:19:31;;;;;;;8.60;2.53;;;;;;;4.60;76.16;100474.47;5095108;28;20077;-40
2021/03/14 03:21:56;;;;;;;13.02;2.33;;;;;;;4.52;75.68;100480.00;5095361;28;20421;-40
2021/03/14 03:24:21;;;;;;;9.17;2.80;;;;;;;4.48;76.17;100489.44;5095041;28;20067;-40
2021/03/14 03:26:48;;;;;;;10.67;2.70;;;;;;;4.43;76.28;100487.38;5094671;28;20115;-40
2021/03/14 03:29:16;;;;;;;10.02;3.13;;;;;;;4.45;76.82;100493.38;5095200;28;20028;-40
2021/03/14 03:31:43;;;;;;;15.57;2.70;;;;;;;4.44;77.07;100497.09;5094710;28;20058;-40
2021/03/14 03:34:10;;;;;;;10.88;2.33;;;;;;;4.42;76.53;100495.63;5094713;28;20051;-40
2021/03/14 03:36:35;;;;;;;;;;;;;;;4.47;76.62;100496.66;5095698;28;20034;-40
2021/03/14 03:39:05;;;;;;;8.18;2.40;;;;;;;4.39;76.74;100492.31;5095270;28;19999;-41
2021/03/14 03:41:31;;;;;;;6.78;2.58;;;;;;;4.39;76.80;100504.84;5094644;28;20059;-40
2021/03/14 03:43:59;;;;;;;12.60;2.78;;;;;;;4.40;77.02;100503.84;5094666;28;20476;-40
2021/03/14 03:46:25;;;;;;;12.52;3.30;;;;;;;4.38;76.79;100504.03;5094467;28;20032;-40
2021/03/14 03:48:55;;;;;;;8.52;2.85;;;;;;;4.44;76.85;100512.28;5093366;28;20460;-40
2021/03/14 03:51:25;;;;;;;10.65;2.88;;;;;;;4.44;77.28;100509.63;5094160;28;20028;-41
2021/03/14 03:53:52;;;;;;;12.93;3.05;;;;;;;4.39;76.88;100508.38;5094138;28;20060;-41
2021/03/14 03:56:19;;;;;;;9.48;3.00;;;;;;;4.34;77.00;100513.50;5094860;28;20028;-40
2021/03/14 03:58:45;;;;;;;6.70;2.72;;;;;;;4.36;77.04;100521.34;5094602;28;20077;-41
2021/03/14 04:01:12;;;;;;;12.13;3.13;;;;;;;4.31;77.19;100523.78;5094380;28;20063;-40
2021/03/14 04:03:43;;;;;;;12.70;3.50;;;;;;;4.32;77.40;100530.78;5094020;28;20055;-40
2021/03/14 04:06:10;;;;;;;10.10;2.95;;;;;;;4.30;76.75;100522.97;5094199;28;20392;-40
2021/03/14 04:08:37;;;;;;;10.77;3.05;;;;;;;4.29;76.72;100531.16;5093903;28;20024;-40
2021/03/14 04:11:09;;;;;;;7.78;2.85;;;;;;;4.29;77.00;100528.50;5094739;28;20419;-41
2021/03/14 04:13:36;;;;;;;8.32;2.72;;;;;;;4.27;76.79;100528.69;5094446;28;20028;-40
2021/03/14 04:16:03;;;;;;;8.20;2.80;;;;;;;4.24;77.04;100533.59;5094038;28;20116;-41
2021/03/14 04:18:31;;;;;;;11.68;3.80;;;;;;;4.19;77.25;100536.06;5094019;28;20491;-40
2021/03/14 04:20:59;;;;;;;10.18;4.03;;;;;;;4.18;77.46;100545.94;5094544;28;20056;-41
2021/03/14 04:23:26;;;;;;;13.68;3.03;;;;;;;4.11;77.09;100539.72;5094228;28;20024;-41
2021/03/14 04:25:54;;;;;;;13.02;4.07;;;;;;;4.10;77.53;100538.91;5093934;28;20036;-40
2021/03/14 04:28:22;;;;;;;10.88;3.25;;;;;;;4.10;77.56;100546.94;5093557;28;20034;-40
2021/03/14 04:30:48;;;;;;;11.68;3.60;;;;;;;4.05;77.43;100544.00;5094384;28;20115;-40
2021/03/14 04:33:16;;;;;;;8.55;3.00;;;;;;;4.02;77.25;100551.59;5094117;28;20030;-40
2021/03/14 04:35:42;;;;;;;8.75;3.50;;;;;;;3.91;77.49;100544.94;5093733;28;20057;-40
2021/03/14 04:38:08;;;;;;;11.30;3.05;;;;;;;3.88;78.02;100553.34;5093409;28;20016;-41
2021/03/14 04:40:34;;;;;;;10.82;3.05;;;;;;;3.85;77.48;100559.88;5094071;28;20030;-40
2021/03/14 04:43:02;;;;;;;9.60;3.13;;;;;;;3.82;77.48;100552.28;5093682;28;20106;-40
2021/03/14 04:45:27;;;;;;;11.55;3.03;;;;;;;3.80;78.02;100553.47;5093964;28;20036;-41
2021/03/14 04:47:53;;;;;;;9.88;3.35;;;;;;;3.78;77.64;100550.19;5094193;28;20359;-40
2021/03/14 04:50:21;;;;;;;14.33;3.60;;;;;;;3.74;77.53;100555.06;5093667;28;20376;-40
2021/03/14 04:52:50;;;;;;;14.07;4.05;;;;;;;3.71;78.41;100566.19;5093834;28;20028;-40
2021/03/14 04:55:17;;;;;;;9.52;2.78;;;;;;;3.67;78.63;100570.25;5093759;28;20024;-40
2021/03/14 04:57:42;;;;;;;8.40;2.80;;;;;;;3.66;78.22;100573.09;5093545;28;20027;-40
2021/03/14 05:00:14;;;;;;;8.60;2.53;;;;;;;3.68;78.23;100584.44;5094096;28;20016;-40
2021/03/14 05:02:42;;;;;;;12.20;3.45;;;;;;;3.65;78.61;100582.97;5093996;28;20028;-40
2021/03/14 05:05:11;;;;;;;11.32;3.25;;;;;;;3.60;78.47;100585.41;5097898;28;20039;-40
2021/03/14 05:07:38;;;;;;;9.82;2.90;;;;;;;3.61;78.65;100590.56;5097868;28;20513;-41
2021/03/14 05:10:10;;;;;;;11.88;2.88;;;;;;;3.58;78.93;100593.63;5097652;28;20357;-41
2021/03/14 05:12:38;;;;;;;12.60;3.75;;;;;;;3.60;78.40;100607.63;5097769;28;20028;-41
2021/03/14 05:15:04;;;;;;;9.18;2.70;;;;;;;3.58;78.55;100619.53;5097717;28;20028;-41
2021/03/14 05:17:30;;;;;;;9.40;3.17;;;;;;;3.57;79.24;100617.88;5097911;28;20016;-41
2021/03/14 05:19:55;;;;;;;10.35;3.25;;;;;;;3.61;80.05;100621.81;5098267;28;20503;-41
2021/03/14 05:22:21;;;;;;;9.48;3.08;;;;;;;3.58;81.15;100624.88;5097616;28;20353;-41
2021/03/14 05:24:48;;;;;;;13.27;3.47;;;;;;;3.58;81.51;100628.38;5097387;28;20036;-41
2021/03/14 05:27:14;;;;;;;7.20;3.00;;;;;;;3.59;81.83;100629.19;5097297;28;20020;-41
2021/03/14 05:29:45;;;;;;;9.93;3.67;;;;;;;3.58;81.96;100635.56;5097288;28;20084;-41
2021/03/14 05:32:10;;;;;;;8.05;3.40;;;;;;;3.56;82.54;100637.59;5097187;28;20020;-41
2021/03/14 05:34:35;;;;;;;6.87;3.30;;;;;;;3.62;82.79;100642.19;5096830;28;20152;-41
2021/03/14 05:37:01;;;;;;;11.07;3.03;;;;;;;3.64;82.08;100650.03;5097433;28;20035;-41
2021/03/14 05:39:26;;;;;;;7.57;3.40;;;;;;;3.65;81.50;100655.16;5097996;28;20034;-41
2021/03/14 05:41:53;;;;;;;7.13;2.63;;;;;;;3.68;82.33;100651.31;5097053;28;20032;-41
2021/03/14 05:44:19;;;;;;;9.20;3.22;;;;;;;3.62;82.38;100658.25;5096979;28;20028;-41
2021/03/14 05:46:44;;;;;;;9.75;2.92;;;;;;;3.62;82.50;100658.25;5096939;28;20034;-42
2021/03/14 05:49:10;;;;;;;9.47;3.50;;;;;;;3.60;82.63;100654.91;5097197;28;20375;-41
2021/03/14 05:51:40;;;;;;;8.75;3.08;;;;;;;3.59;83.04;100670.13;5096805;28;20028;-42
2021/03/14 05:54:10;;;;;;;9.35;3.28;;;;;;;3.58;83.12;100665.00;5096507;28;20059;-41
2021/03/14 05:56:39;;;;;;;10.73;3.80;;;;;;;3.59;83.16;100670.13;5096356;28;20543;-41
2021/03/14 05:59:05;;;;;;;11.40;3.15;;;;;;;3.64;83.11;100674.09;5096945;28;20032;-41
2021/03/14 06:01:31;;;;;;;8.45;3.33;;;;;;;3.64;83.40;100674.91;5097479;28;20020;-41
2021/03/14 06:03:58;;;;;;;10.93;3.80;;;;;;;3.65;83.43;100676.56;5097142;28;20024;-41
2021/03/14 06:06:24;;;;;;;10.32;3.65;;;;;;;3.63;83.46;100689.31;5097097;28;20039;-41
2021/03/14 06:08:51;;;;;;;7.20;2.85;;;;;;;3.61;83.81;100694.00;5096450;28;20066;-41
2021/03/14 06:11:16;;;;;;;9.68;3.22;;;;;;;3.60;84.02;100700.38;5096730;28;20058;-41
2021/03/14 06:13:44;;;;;;;13.13;4.20;;;;;;;3.59;84.60;100699.56;5096684;28;20036;-41
2021/03/14 06:16:10;;;;;;;8.40;3.60;;;;;;;3.53;84.51;100699.50;5095404;28;20460;-41
2021/03/14 06:18:35;;;;;;;11.33;3.57;;;;;;;3.54;84.62;100701.13;5096086;28;20035;-41
2021/03/14 06:21:03;;;;;;;11.73;3.07;;;;;;;3.57;84.37;100706.13;5095994;28;20498;-41
2021/03/14 06:23:29;;;;;;;9.02;3.20;;;;;;;3.58;84.86;100710.44;5096772;28;20047;-41
2021/03/14 06:25:56;;;;;;;8.10;3.03;;;;;;;3.58;84.72;100715.78;5096968;28;20066;-41
2021/03/14 06:28:33;;;;;;;11.48;3.45;;;;;;;3.57;85.31;100714.16;5096284;28;20165;-41
2021/03/14 06:31:15;;;;;;;14.10;5.28;;;;;;;3.61;84.55;100721.59;5096537;28;20475;-41
2021/03/14 06:33:40;;;;;;;14.73;4.07;;;;;;;3.59;84.94;100722.78;5095751;28;20058;-41
2021/03/14 06:36:11;;;;;;;8.40;3.57;;;;;;;3.57;85.22;100720.31;5096266;28;20067;-41
2021/03/14 06:38:36;;;;;;;8.88;4.07;;;;;;;3.59;84.83;100726.28;5096474;28;20020;-41
2021/03/14 06:41:02;;;;;;;7.93;3.17;;;;;;;3.63;85.14;100732.09;5096494;28;20028;-41
2021/03/14 06:43:35;;;;;;;11.23;4.17;;;;;;;3.63;84.86;100734.78;5096060;28;20154;-41
2021/03/14 06:46:16;;;;;;;11.50;4.03;;;;;;;3.60;85.26;100741.31;5095722;28;20496;-41
2021/03/14 06:48:41;;;;;;;8.38;3.65;;;;;;;3.63;85.18;100750.00;5096008;28;20025;-41
2021/03/14 06:51:07;;;;;;;13.23;3.83;;;;;;;3.58;85.03;100745.22;5095749;28;20044;-41
2021/03/14 06:53:32;;;;;;;7.73;3.20;;;;;;;3.64;84.86;100765.84;5095814;28;20119;-41
2021/03/14 06:56:05;;;;;;;9.03;3.23;;;;;;;3.63;85.18;100769.53;5095505;28;20468;-41
2021/03/14 06:58:36;;;;;;;10.13;2.90;;;;;;;3.66;85.09;100771.84;5096015;28;20051;-41
2021/03/14 07:01:20;;;;;;;12.13;3.65;;;;;;;3.69;85.55;100770.63;5096020;28;20445;-41
2021/03/14 07:03:49;;;;;;;7.43;3.30;;;;;;;3.70;85.62;100777.63;5095378;28;20040;-41
2021/03/14 07:06:19;;;;;;;8.98;3.83;;;;;;;3.72;85.80;100783.63;5095365;28;20032;-41
2021/03/14 07:08:45;;;;;;;6.28;3.35;;;;;;;3.71;85.37;100784.63;5095709;28;20461;-41
2021/03/14 07:11:12;;;;;;;7.80;3.28;;;;;;;3.73;85.18;100796.81;5095223;28;20075;-42
2021/03/14 07:13:39;;;;;;;7.13;3.22;;;;;;;3.72;85.70;100802.34;5095248;28;20039;-40
2021/03/14 07:16:05;;;;;;;9.20;3.15;;;;;;;3.74;85.58;100803.81;5095283;28;20051;-40
2021/03/14 07:18:33;;;;;;;10.38;3.58;;;;;;;3.77;85.92;100805.31;5095612;28;20035;-41
2021/03/14 07:20:58;;;;;;;5.10;2.80;;;;;;;3.71;86.29;100801.53;5095337;28;20361;-41
2021/03/14 07:23:32;;;;;;;4.87;3.30;;;;;;;3.73;86.53;100806.69;5095036;28;20039;-41
2021/03/14 07:25:58;;;;;;;11.13;4.50;;;;;;;3.70;86.89;100809.72;5094616;28;20074;-41
2021/03/14 07:28:24;;;;;;;12.27;4.65;;;;;;;3.72;86.54;100818.41;5093403;28;20052;-40
2021/03/14 07:30:51;;;;;;;10.50;5.35;;;;;;;3.78;87.09;100817.66;5094698;28;20115;-42
2021/03/14 07:33:17;;;;;;;5.47;3.60;;;;;;;3.80;86.61;100829.81;5094895;28;20028;-40
2021/03/14 07:35:46;;;;;;;8.32;3.92;;;;;;;3.81;86.77;100831.50;5094791;28;20045;-41
2021/03/14 07:38:12;;;;;;;8.63;4.55;;;;;;;3.81;86.65;100842.19;5094772;28;20030;-42
2021/03/14 07:40:37;;;;;;;8.15;4.05;;;;;;;3.85;87.06;100835.41;5095109;28;20024;-42
2021/03/14 07:43:04;;;;;;;10.10;4.80;;;;;;;3.85;86.84;100830.06;5094714;28;20099;-41
2021/03/14 07:45:31;;;;;;;7.63;4.30;;;;;;;3.81;87.21;100834.16;5094627;28;20024;-41
2021/03/14 07:47:59;;;;;;;9.48;4.28;;;;;;;3.83;87.41;100845.50;5095201;28;20028;-42
2021/03/14 07:50:27;;;;;;;9.13;4.80;;;;;;;3.86;87.65;100861.19;5095449;28;20027;-42
2021/03/14 07:52:57;;;;;;;8.60;4.20;;;;;;;3.91;86.93;100865.97;5095152;28;20032;-41
2021/03/14 07:55:22;;;;;;;10.15;4.60;;;;;;;3.97;87.54;100867.06;5094736;28;20032;-41
2021/03/14 07:57:50;;;;;;;8.77;4.93;;;;;;;4.01;87.26;100871.03;5094405;28;20154;-42
2021/03/14 08:00:24;;;;;;;9.30;5.45;;;;;;;4.01;87.64;100876.38;5094414;28;20024;-41
2021/03/14 08:02:59;;;;;;;8.52;5.03;;;;;;;4.03;87.05;100883.19;5094254;28;20491;-41
2021/03/14 08:05:40;;;;;;;9.32;5.78;;;;;;;4.05;87.26;100888.34;5094094;28;20039;-41
2021/03/14 08:08:07;;;;;;;11.00;5.47;;;;;;;4.04;87.50;100897.41;5094785;28;20111;-41
2021/03/14 08:10:58;;;;;;;9.75;4.90;;;;;;;4.11;87.62;100895.66;5094637;28;20480;-41
2021/03/14 08:13:29;;;;;;;7.50;5.65;;;;;;;4.15;87.72;100899.63;5092748;28;20060;-41
2021/03/14 08:16:00;;;;;;;9.35;5.38;;;;;;;4.20;88.14;100909.72;5094113;28;20055;-42
2021/03/14 08:18:46;;;;;;;7.80;5.05;;;;;;;4.27;87.66;100914.16;5094712;28;20039;-41
2021/03/14 08:21:21;;;;;;;8.70;5.30;;;;;;;4.39;88.18;100907.31;5094073;28;20031;-42
2021/03/14 08:23:49;;;;;;;10.68;5.72;;;;;;;4.44;88.18;100921.97;5093992;28;20384;-41
2021/03/14 08:26:22;;;;;;;11.45;5.63;;;;;;;4.47;88.41;100910.88;5094070;28;20032;-41
2021/03/14 08:28:56;;;;;;;9.52;5.85;;;;;;;4.51;88.60;100920.19;5093907;28;20027;-41
2021/03/14 08:31:47;;;;;;;13.23;6.47;;;;;;;4.54;88.29;100926.00;5094226;28;20059;-41
2021/03/14 08:34:31;;;;;;;9.45;5.88;;;;;;;4.58;88.07;100937.16;5093919;28;20063;-41
2021/03/14 08:36:57;;;;;;;7.90;5.80;;;;;;;4.62;87.74;100944.63;5094352;28;20044;-42
2021/03/14 08:39:34;;;;;;;10.52;5.60;;;;;;;4.65;87.97;100946.94;5093166;28;20468;-41
2021/03/14 08:42:00;;;;;;;;;;;;;;;4.74;87.15;100957.53;5094840;28;20115;-41
2021/03/14 08:44:42;;;;;;;11.57;6.30;;;;;;;4.77;88.04;100944.56;5094043;28;19911;-41
2021/03/14 08:47:08;;;;;;;11.52;5.85;;;;;;;4.82;87.66;100946.69;5093758;28;20028;-42
2021/03/14 08:49:35;;;;;;;10.63;6.07;;;;;;;4.87;87.97;100955.81;5094269;28;20376;-41
2021/03/14 08:52:02;;;;;;;11.88;6.18;;;;;;;4.93;87.74;100959.59;5093935;28;20031;-42
2021/03/14 08:54:34;;;;;;;7.25;5.72;;;;;;;4.96;88.11;100955.69;5093291;28;20055;-41
2021/03/14 08:57:04;;;;;;;11.57;5.90;;;;;;;5.02;87.54;100966.47;5094112;28;20164;-42
2021/03/14 08:59:30;;;;;;;11.57;7.65;;;;;;;5.20;88.10;100957.16;5093580;28;20384;-42
2021/03/14 09:01:58;;;;;;;11.50;7.18;;;;;;;5.44;88.12;100962.09;5093871;28;20144;-41
2021/03/14 09:04:27;;;;;;;10.82;6.57;;;;;;;5.72;87.21;100962.09;5094105;28;20025;-43
2021/03/14 09:07:00;;;;;;;8.35;6.03;;;;;;;5.99;86.66;100959.59;5093465;28;20029;-42
2021/03/14 09:09:26;;;;;;;11.07;6.10;;;;;;;6.26;86.00;100957.91;5093795;28;20511;-43
2021/03/14 09:11:53;;;;;;;8.95;6.05;;;;;;;6.32;84.28;100967.84;5093940;28;20044;-42
2021/03/14 09:14:35;;;;;;;10.43;5.95;;;;;;;6.35;83.95;100976.31;5093931;28;20031;-42
2021/03/14 09:17:05;;;;;;;8.93;5.68;;;;;;;6.31;84.24;100967.00;5093701;28;20518;-42
2021/03/14 09:19:48;;;;;;;11.30;6.00;;;;;;;6.25;83.86;100973.19;5093600;28;20062;-41
2021/03/14 09:22:20;;;;;;;10.82;5.78;;;;;;;6.19;83.80;100968.59;5093284;28;20032;-40
2021/03/14 09:24:58;;;;;;;9.38;5.45;;;;;;;6.18;84.29;100980.38;5093317;28;20111;-41
2021/03/14 09:27:31;;;;;;;10.40;5.63;;;;;;;6.19;83.82;100979.31;5093591;28;20420;-41
2021/03/14 09:29:58;;;;;;;18.83;6.50;;;;;;;6.17;83.83;100982.22;5093271;28;20024;-41
2021/03/14 09:32:31;;;;;;;12.45;5.97;;;;;;;6.17;83.35;100984.09;5093150;28;20063;-41
2021/03/14 09:35:18;;;;;;;8.48;5.57;;;;;;;6.19;83.76;100995.44;5093221;28;20059;-41
2021/03/14 09:37:48;;;;;;;;;;;;;;;6.25;83.02;100994.66;5094435;28;20035;-41
2021/03/14 09:40:32;;;;;;;8.20;4.80;;;;;;;6.17;83.55;101006.38;5092888;28;19912;-42
2021/03/14 09:43:18;;;;;;;9.05;4.53;;;;;;;6.23;83.55;101004.75;5093365;28;20024;-40
2021/03/14 09:46:02;;;;;;;12.80;4.95;;;;;;;6.33;83.96;101007.91;5093398;28;20039;-41
2021/03/14 09:48:32;;;;;;;7.70;4.00;;;;;;;6.31;81.92;101015.34;5092842;28;20148;-41
2021/03/14 09:51:07;;;;;;;8.35;4.03;;;;;;;6.42;81.83;101013.97;5094590;28;20031;-41
2021/03/14 09:53:38;;;;;;;10.93;3.88;;;;;;;6.54;81.97;101019.56;5096560;28;20073;-41
2021/03/14 09:56:06;;;;;;;8.10;3.70;;;;;;;6.63;81.53;101018.38;5096935;28;20039;-41
2021/03/14 09:58:31;;;;;;;9.18;3.95;;;;;;;6.66;80.31;101026.06;5096950;28;20453;-41
2021/03/14 10:00:59;;;;;;;9.60;4.82;;;;;;;6.72;80.38;101028.75;5097483;28;20099;-41
2021/03/14 10:03:26;;;;;;;6.35;3.95;;;;;;;6.79;81.47;101034.16;5097102;28;20036;-41
2021/03/14 10:05:57;;;;;;;5.95;3.72;;;;;;;6.81;80.24;101042.84;5096605;28;20035;-42
2021/03/14 10:08:33;;;;;;;7.75;3.83;;;;;;;6.89;80.23;101042.69;5096739;28;20388;-41
2021/03/14 10:11:04;;;;;;;8.77;4.22;;;;;;;6.97;80.52;101047.03;5096861;28;20115;-41
2021/03/14 10:13:32;;;;;;;8.48;3.38;;;;;;;6.94;79.37;101052.84;5096631;28;20485;-41
2021/03/14 10:15:59;;;;;;;8.32;3.90;;;;;;;6.87;79.15;101055.47;5096292;28;20153;-41
2021/03/14 10:18:27;;;;;;;8.88;4.38;;;;;;;6.81;79.64;101053.59;5096305;28;20055;-41
2021/03/14 10:21:15;;;;;;;7.60;3.65;;;;;;;6.87;79.97;101050.09;5096246;28;20020;-41
2021/03/14 10:23:41;;;;;;;9.15;4.00;;;;;;;6.90;80.07;101054.25;5095984;28;20028;-41
2021/03/14 10:26:11;;;;;;;9.23;3.90;;;;;;;6.96;79.79;101050.75;5095949;28;20432;-41
2021/03/14 10:28:43;;;;;;;6.57;3.08;;;;;;;6.92;77.64;101050.31;5095804;28;20078;-41
2021/03/14 10:31:09;;;;;;;5.75;2.05;;;;;;;6.88;76.06;101065.22;5096598;28;20028;-41
2021/03/14 10:33:40;;;;;;;4.22;2.10;;;;;;;6.87;76.73;101060.84;5095987;28;20020;-41
2021/03/14 10:36:10;;;;;;;5.53;1.50;;;;;;;6.91;76.66;101066.66;5096467;28;20039;-41
2021/03/14 10:38:46;;;;;;;6.90;1.92;;;;;;;6.96;76.20;101058.81;5095841;28;20020;-41
2021/03/14 10:41:13;;;;;;;6.73;2.17;;;;;;;7.11;75.99;101064.84;5095939;28;20099;-41
2021/03/14 10:43:53;;;;;;;4.50;2.28;;;;;;;7.32;75.41;101071.97;5095806;28;20433;-41
2021/03/14 10:46:41;;;;;;;4.38;2.13;;;;;;;7.53;76.62;101062.06;5095635;28;20044;-41
2021/03/14 10:49:09;;;;;;;5.63;2.75;;;;;;;7.79;76.20;101061.22;5096232;28;20073;-41
2021/03/14 10:51:36;;;;;;;5.70;2.42;;;;;;;7.88;75.39;101071.59;5095688;28;20028;-41
2021/03/14 10:54:02;;;;;;;;;;;;;;;7.98;74.26;101082.75;5096281;28;20032;-41
2021/03/14 10:56:41;;;;;;;8.80;2.90;;;;;;;7.79;75.18;101080.06;5096354;28;20310;-41
2021/03/14 10:59:39;;;;;;;4.82;1.60;;;;;;;7.70;73.05;101087.53;5095754;28;20464;-41
2021/03/14 11:02:12;;;;;;;6.60;2.10;;;;;;;7.59;72.95;101096.22;5095465;28;20028;-41
2021/03/14 11:04:38;;;;;;;6.50;3.03;;;;;;;7.52;75.98;101108.84;5095329;28;20030;-41
2021/03/14 11:07:28;;;;;;;12.00;3.72;;;;;;;7.52;75.46;101106.97;5095434;28;20465;-41
2021/03/14 11:10:16;;;;;;;6.00;3.33;;;;;;;7.56;76.34;101099.31;5095339;28;20028;-40
2021/03/14 11:12:47;;;;;;;7.60;3.08;;;;;;;7.57;77.00;101109.88;5095684;28;20044;-40
2021/03/14 11:15:33;;;;;;;7.88;3.78;;;;;;;7.70;76.12;101114.44;5095935;28;20157;-40
2021/03/14 11:18:02;;;;;;;5.82;3.38;;;;;;;7.74;74.15;101113.00;5095093;28;20024;-40
2021/03/14 11:20:28;;;;;;;6.10;3.15;;;;;;;7.89;74.95;101105.53;5095985;28;20410;-40
2021/03/14 11:22:54;;;;;;;;;;;;;;;8.10;74.31;101109.91;5094438;28;20059;-40
2021/03/14 11:25:21;;;;;;;8.70;2.78;;;;;;;8.14;71.17;101118.38;5095302;28;19969;-40
2021/03/14 11:27:47;;;;;;;5.38;2.85;;;;;;;8.21;71.34;101114.66;5094945;28;20071;-40
2021/03/14 11:30:16;;;;;;;7.75;2.80;;;;;;;8.26;72.15;101122.13;5095473;28;20028;-40
2021/03/14 11:32:42;;;;;;;12.18;2.92;;;;;;;8.20;70.71;101112.19;5095143;28;20020;-40
2021/03/14 11:35:09;;;;;;;8.07;2.50;;;;;;;8.16;71.64;101116.34;5094815;28;20434;-40
2021/03/14 11:37:35;;;;;;;5.07;2.17;;;;;;;8.12;71.05;101123.16;5094526;28;20372;-41
2021/03/14 11:40:00;;;;;;;11.38;2.63;;;;;;;8.02;71.84;101128.16;5095311;28;20040;-41